createdAt,value
2023-06-30T00:00:09.983Z,64.22
2023-06-30T00:02:37.594Z,64.27
2023-06-30T00:05:04.285Z,64.31
2023-06-30T00:07:30.744Z,64.14
2023-06-30T00:09:57.528Z,64.30
2023-06-30T00:12:24.152Z,64.17
2023-06-30T00:14:50.695Z,64.53
2023-06-30T00:17:17.253Z,64.15
2023-06-30T00:19:43.677Z,64.29
2023-06-30T00:22:10.112Z,64.30
2023-06-30T00:24:36.517Z,64.22
2023-06-30T00:27:03.048Z,64.62
2023-06-30T00:29:30.092Z,64.44
2023-06-30T00:31:57.044Z,64.81
2023-06-30T00:34:23.511Z,64.27
2023-06-30T00:36:50.001Z,64.79
2023-06-30T00:39:16.540Z,64.40
2023-06-30T00:41:42.971Z,64.86
2023-06-30T00:44:10.428Z,64.90
2023-06-30T00:46:37.013Z,64.33
2023-06-30T00:49:03.579Z,64.62
2023-06-30T00:51:30.093Z,64.64
2023-06-30T00:53:56.855Z,64.92
2023-06-30T00:56:25.442Z,64.61
2023-06-30T00:58:51.993Z,64.79
2023-06-30T01:01:24.446Z,64.80
2023-06-30T01:04:00.662Z,64.80
2023-06-30T01:06:39.728Z,65.39
2023-06-30T01:09:14.586Z,65.24
2023-06-30T01:11:42.670Z,64.92
2023-06-30T01:14:12.359Z,65.04
2023-06-30T01:16:41.680Z,65.34
2023-06-30T01:19:21.628Z,65.08
2023-06-30T01:21:48.500Z,64.98
2023-06-30T01:24:17.666Z,64.88
2023-06-30T01:26:44.278Z,65.01
2023-06-30T01:29:11.349Z,65.01
2023-06-30T01:31:37.908Z,65.08
2023-06-30T01:34:04.408Z,64.99
2023-06-30T01:36:30.906Z,65.09
2023-06-30T01:38:59.305Z,65.05
2023-06-30T01:41:26.460Z,65.20
2023-06-30T01:43:53.988Z,65.42
2023-06-30T01:46:20.494Z,65.43
2023-06-30T01:48:47.626Z,65.58
2023-06-30T01:51:14.790Z,65.32
2023-06-30T01:53:41.315Z,65.12
2023-06-30T01:56:07.783Z,65.29
2023-06-30T01:58:34.289Z,65.18
2023-06-30T02:01:00.920Z,65.15
2023-06-30T02:03:29.233Z,65.40
2023-06-30T02:05:55.671Z,65.53
2023-06-30T02:08:22.692Z,65.31
2023-06-30T02:10:49.282Z,65.48
2023-06-30T02:13:16.926Z,65.28
2023-06-30T02:15:43.528Z,65.33
2023-06-30T02:18:10.231Z,65.22
2023-06-30T02:20:36.670Z,65.42
2023-06-30T02:23:03.185Z,65.03
2023-06-30T02:25:29.611Z,65.12
2023-06-30T02:27:56.060Z,65.21
2023-06-30T02:30:22.563Z,65.54
2023-06-30T02:32:49.311Z,65.14
2023-06-30T02:35:16.060Z,65.74
2023-06-30T02:37:42.658Z,65.76
2023-06-30T02:40:10.253Z,65.82
2023-06-30T02:42:36.736Z,65.78
2023-06-30T02:45:05.214Z,66.17
2023-06-30T02:47:32.377Z,66.05
2023-06-30T02:49:58.922Z,66.12
2023-06-30T02:52:26.628Z,66.19
2023-06-30T02:54:53.219Z,66.38
2023-06-30T02:57:20.427Z,66.54
2023-06-30T02:59:47.284Z,66.33
2023-06-30T03:02:14.491Z,66.36
2023-06-30T03:04:41.140Z,66.17
2023-06-30T03:07:08.662Z,66.25
2023-06-30T03:09:37.619Z,66.38
2023-06-30T03:12:04.490Z,66.68
2023-06-30T03:14:31.067Z,66.89
2023-06-30T03:16:57.633Z,66.63
2023-06-30T03:19:24.112Z,66.85
2023-06-30T03:21:50.601Z,66.83
2023-06-30T03:24:18.421Z,66.67
2023-06-30T03:26:44.958Z,67.23
2023-06-30T03:29:19.632Z,67.11
2023-06-30T03:31:46.210Z,67.29
2023-06-30T03:34:12.727Z,67.54
2023-06-30T03:36:39.269Z,67.47
2023-06-30T03:39:08.604Z,67.61
2023-06-30T03:41:35.194Z,67.49
2023-06-30T03:44:01.757Z,67.74
2023-06-30T03:46:28.366Z,67.94
2023-06-30T03:48:54.911Z,68.30
2023-06-30T03:51:21.546Z,67.99
2023-06-30T03:53:51.349Z,68.39
2023-06-30T03:56:17.792Z,68.30
2023-06-30T03:58:44.418Z,68.78
2023-06-30T04:01:12.391Z,68.57
2023-06-30T04:03:39.545Z,68.61
2023-06-30T04:06:06.182Z,68.69
2023-06-30T04:08:33.110Z,69.04
2023-06-30T04:10:59.644Z,69.02
2023-06-30T04:13:26.095Z,69.05
2023-06-30T04:15:52.614Z,68.74
2023-06-30T04:18:19.080Z,68.62
2023-06-30T04:20:45.602Z,68.68
2023-06-30T04:23:12.025Z,68.55
2023-06-30T04:25:38.589Z,68.68
2023-06-30T04:28:05.043Z,68.84
2023-06-30T04:30:31.564Z,68.81
2023-06-30T04:32:58.094Z,69.13
2023-06-30T04:35:26.390Z,69.24
2023-06-30T04:37:53.548Z,69.48
2023-06-30T04:40:20.107Z,69.46
2023-06-30T04:42:46.541Z,69.92
2023-06-30T04:45:13.044Z,69.59
2023-06-30T04:47:40.145Z,70.03
2023-06-30T04:50:07.017Z,69.69
2023-06-30T04:52:33.585Z,69.77
2023-06-30T04:55:00.160Z,69.48
2023-06-30T04:57:27.502Z,69.48
2023-06-30T04:59:55.917Z,69.60
2023-06-30T05:02:22.489Z,69.13
2023-06-30T05:04:50.292Z,68.94
2023-06-30T05:07:16.811Z,68.73
2023-06-30T05:09:43.575Z,68.82
2023-06-30T05:12:10.076Z,68.32
2023-06-30T05:14:36.740Z,68.48
2023-06-30T05:17:03.489Z,68.41
2023-06-30T05:19:30.072Z,68.33
2023-06-30T05:21:56.517Z,67.86
2023-06-30T05:24:22.967Z,68.14
2023-06-30T05:26:49.612Z,68.06
2023-06-30T05:29:16.041Z,68.01
2023-06-30T05:31:42.571Z,68.15
2023-06-30T05:34:10.044Z,68.18
2023-06-30T05:36:37.592Z,68.16
2023-06-30T05:39:04.166Z,67.84
2023-06-30T05:41:30.657Z,67.88
2023-06-30T05:43:57.094Z,67.18
2023-06-30T05:46:23.605Z,66.95
2023-06-30T05:48:50.115Z,66.56
2023-06-30T05:51:16.565Z,65.77
2023-06-30T05:53:42.982Z,65.74
2023-06-30T05:56:09.477Z,65.36
2023-06-30T05:58:39.004Z,65.23
2023-06-30T06:01:05.493Z,65.27
2023-06-30T06:03:32.232Z,65.15
2023-06-30T06:05:58.985Z,64.69
2023-06-30T06:08:25.688Z,64.48
2023-06-30T06:10:52.245Z,64.42
2023-06-30T06:13:36.276Z,63.54
2023-06-30T06:16:04.095Z,63.45
2023-06-30T06:18:30.920Z,63.17
2023-06-30T06:20:58.058Z,63.42
2023-06-30T06:23:25.553Z,63.24
2023-06-30T06:25:52.253Z,63.59
2023-06-30T06:28:18.924Z,63.66
2023-06-30T06:30:46.161Z,63.19
2023-06-30T06:33:12.701Z,63.25
2023-06-30T06:35:39.108Z,62.71
2023-06-30T06:38:05.625Z,62.75
2023-06-30T06:40:33.736Z,63.21
2023-06-30T06:43:00.151Z,62.13
2023-06-30T06:45:27.846Z,61.90
2023-06-30T06:48:22.561Z,61.88
2023-06-30T06:50:50.802Z,61.78
2023-06-30T06:53:22.381Z,61.56
2023-06-30T06:55:50.034Z,62.12
2023-06-30T06:58:16.804Z,61.66
2023-06-30T07:00:45.382Z,61.64
2023-06-30T07:03:11.858Z,61.59
2023-06-30T07:05:41.185Z,61.74
2023-06-30T07:08:08.407Z,61.64
2023-06-30T07:10:35.162Z,61.21
2023-06-30T07:13:02.848Z,60.59
2023-06-30T07:15:29.824Z,60.50
2023-06-30T07:17:57.331Z,60.84
2023-06-30T07:20:24.822Z,60.27
2023-06-30T07:22:52.364Z,60.37
2023-06-30T07:25:18.904Z,60.04
2023-06-30T07:27:54.146Z,60.07
2023-06-30T07:30:22.535Z,60.06
2023-06-30T07:32:49.416Z,59.74
2023-06-30T07:35:16.062Z,59.50
2023-06-30T07:37:42.503Z,59.60
2023-06-30T07:40:16.564Z,59.53
2023-06-30T07:42:47.584Z,59.59
2023-06-30T07:45:16.465Z,59.97
2023-06-30T07:47:44.972Z,59.77
2023-06-30T07:50:13.425Z,59.51
2023-06-30T07:52:45.170Z,59.92
2023-06-30T07:55:17.194Z,60.21
2023-06-30T07:57:44.922Z,59.72
2023-06-30T08:00:16.192Z,59.15
2023-06-30T08:02:43.472Z,58.99
2023-06-30T08:05:10.386Z,59.08
2023-06-30T08:07:49.213Z,58.90
2023-06-30T08:10:17.673Z,58.58
2023-06-30T08:12:44.205Z,58.22
2023-06-30T08:15:10.886Z,57.85
2023-06-30T08:17:51.004Z,57.45
2023-06-30T08:20:20.723Z,57.32
2023-06-30T08:22:47.323Z,57.51
2023-06-30T08:25:14.012Z,57.44
2023-06-30T08:27:40.457Z,57.32
2023-06-30T08:30:07.715Z,56.99
2023-06-30T08:32:34.261Z,56.78
2023-06-30T08:35:02.688Z,57.08
2023-06-30T08:37:29.199Z,56.83
2023-06-30T08:39:55.643Z,56.22
2023-06-30T08:42:29.500Z,56.06
2023-06-30T08:44:57.973Z,56.00
2023-06-30T08:47:29.428Z,56.06
2023-06-30T08:49:57.269Z,55.86
2023-06-30T08:52:23.791Z,55.77
2023-06-30T08:54:50.329Z,55.85
2023-06-30T08:57:17.234Z,56.15
2023-06-30T08:59:44.452Z,55.78
2023-06-30T09:02:12.908Z,55.93
2023-06-30T09:04:41.297Z,55.39
2023-06-30T09:07:16.220Z,55.22
2023-06-30T09:09:45.149Z,55.53
2023-06-30T09:12:11.894Z,55.42
2023-06-30T09:14:41.422Z,55.03
2023-06-30T09:17:07.899Z,55.10
2023-06-30T09:19:35.137Z,54.63
2023-06-30T09:22:51.046Z,54.39
2023-06-30T09:24:49.611Z,54.51
2023-06-30T09:27:17.963Z,54.51
2023-06-30T09:29:54.255Z,54.27
2023-06-30T09:32:28.833Z,53.92
2023-06-30T09:34:55.493Z,53.90
2023-06-30T09:37:22.320Z,53.50
2023-06-30T09:39:53.284Z,53.60
2023-06-30T09:42:22.022Z,53.35
2023-06-30T09:44:48.832Z,52.90
2023-06-30T09:47:18.408Z,53.21
2023-06-30T09:49:46.669Z,53.34
2023-06-30T09:52:23.729Z,53.38
2023-06-30T09:54:50.325Z,53.19
2023-06-30T09:57:16.765Z,53.14
2023-06-30T09:59:43.193Z,53.06
2023-06-30T10:02:11.412Z,52.62
2023-06-30T10:04:38.470Z,52.63
2023-06-30T10:07:06.287Z,51.75
2023-06-30T10:09:35.199Z,52.06
2023-06-30T10:12:02.886Z,52.28
2023-06-30T10:14:31.946Z,51.83
2023-06-30T10:17:01.801Z,52.15
2023-06-30T10:19:31.121Z,52.25
2023-06-30T10:21:58.554Z,51.80
2023-06-30T10:24:27.986Z,51.39
2023-06-30T10:26:55.858Z,50.59
2023-06-30T10:29:23.379Z,49.32
2023-06-30T10:31:50.207Z,49.20
2023-06-30T10:34:18.159Z,49.74
2023-06-30T10:36:45.501Z,49.95
2023-06-30T10:39:12.585Z,49.89
2023-06-30T10:41:47.123Z,49.62
2023-06-30T10:44:13.538Z,49.19
2023-06-30T10:46:51.180Z,50.23
2023-06-30T10:49:30.757Z,50.46
2023-06-30T10:51:59.820Z,50.51
2023-06-30T10:54:42.422Z,50.57
2023-06-30T10:57:26.013Z,50.49
2023-06-30T11:00:12.495Z,51.08
2023-06-30T11:02:51.498Z,51.46
2023-06-30T11:05:22.867Z,51.63
2023-06-30T11:08:07.990Z,52.02
2023-06-30T11:10:45.210Z,51.67
2023-06-30T11:13:12.303Z,51.57
2023-06-30T11:15:45.143Z,51.29
2023-06-30T11:18:23.328Z,51.04
2023-06-30T11:21:02.887Z,50.97
2023-06-30T11:23:33.678Z,50.71
2023-06-30T11:26:13.118Z,50.96
2023-06-30T11:28:41.883Z,51.10
2023-06-30T11:31:08.434Z,51.18
2023-06-30T11:33:49.050Z,51.02
2023-06-30T11:36:17.216Z,51.45
2023-06-30T11:38:47.180Z,51.47
2023-06-30T11:41:21.927Z,51.52
2023-06-30T11:43:56.265Z,52.12
2023-06-30T11:46:23.134Z,52.15
2023-06-30T11:48:50.543Z,52.00
2023-06-30T11:51:18.338Z,52.77
2023-06-30T11:53:47.557Z,53.01
2023-06-30T11:56:14.099Z,53.49
2023-06-30T11:58:48.426Z,53.51
2023-06-30T12:01:14.897Z,53.70
2023-06-30T12:03:41.400Z,53.64
2023-06-30T12:06:08.869Z,53.66
2023-06-30T12:08:39.964Z,53.75
2023-06-30T12:11:09.834Z,53.30
2023-06-30T12:13:42.932Z,52.97
2023-06-30T12:16:09.441Z,52.88
2023-06-30T12:18:38.117Z,52.40
2023-06-30T12:21:14.626Z,51.60
2023-06-30T12:23:45.640Z,50.96
2023-06-30T12:26:16.365Z,51.85
2023-06-30T12:28:43.404Z,51.97
2023-06-30T12:31:09.988Z,51.99
2023-06-30T12:33:36.545Z,52.19
2023-06-30T12:36:07.395Z,52.38
2023-06-30T12:38:34.012Z,52.50
2023-06-30T12:41:01.029Z,51.25
2023-06-30T12:43:28.344Z,49.81
2023-06-30T12:45:54.905Z,49.93
2023-06-30T12:48:21.316Z,49.98
2023-06-30T12:50:47.972Z,49.06
2023-06-30T12:53:14.550Z,49.47
2023-06-30T12:55:41.027Z,49.59
2023-06-30T12:58:07.563Z,49.12
2023-06-30T13:00:33.991Z,48.40
2023-06-30T13:03:00.586Z,48.30
2023-06-30T13:05:27.172Z,47.63
2023-06-30T13:07:53.639Z,47.84
2023-06-30T13:10:20.072Z,47.84
2023-06-30T13:12:46.540Z,47.42
2023-06-30T13:15:13.008Z,47.43
2023-06-30T13:17:39.553Z,47.45
2023-06-30T13:20:07.583Z,47.36
2023-06-30T13:22:36.223Z,47.02
2023-06-30T13:25:03.807Z,46.12
2023-06-30T13:27:30.277Z,46.33
2023-06-30T13:29:57.478Z,46.31
2023-06-30T13:32:23.986Z,46.59
2023-06-30T13:34:50.537Z,46.32
2023-06-30T13:37:17.046Z,45.95
2023-06-30T13:39:43.552Z,46.84
2023-06-30T13:42:10.420Z,46.85
2023-06-30T13:44:37.505Z,46.46
2023-06-30T13:47:04.282Z,46.69
2023-06-30T13:49:30.703Z,46.64
2023-06-30T13:51:57.181Z,46.93
2023-06-30T13:54:24.421Z,47.44
2023-06-30T13:56:51.488Z,47.28
2023-06-30T13:59:18.000Z,47.91
2023-06-30T14:01:44.501Z,48.51
2023-06-30T14:04:11.018Z,48.78
2023-06-30T14:06:37.545Z,48.39
2023-06-30T14:09:03.973Z,48.70
2023-06-30T14:11:30.422Z,47.94
2023-06-30T14:13:57.622Z,47.98
2023-06-30T14:16:24.776Z,47.39
2023-06-30T14:18:51.498Z,47.52
2023-06-30T14:21:19.367Z,47.41
2023-06-30T14:23:46.244Z,47.29
2023-06-30T14:26:12.749Z,46.73
2023-06-30T14:28:39.328Z,45.69
2023-06-30T14:31:06.009Z,45.21
2023-06-30T14:33:32.687Z,45.73
2023-06-30T14:35:59.732Z,45.31
2023-06-30T14:38:26.269Z,44.67
2023-06-30T14:40:52.856Z,44.26
2023-06-30T14:43:19.464Z,43.91
2023-06-30T14:45:46.448Z,43.75
2023-06-30T14:48:13.225Z,44.13
2023-06-30T14:50:39.665Z,44.08
2023-06-30T14:53:06.107Z,43.84
2023-06-30T14:55:32.600Z,44.28
2023-06-30T14:57:59.110Z,44.17
2023-06-30T15:00:25.598Z,43.86
2023-06-30T15:02:52.159Z,44.12
2023-06-30T15:05:18.650Z,44.23
2023-06-30T15:07:47.572Z,44.50
2023-06-30T15:10:14.690Z,44.86
2023-06-30T15:12:41.264Z,44.89
2023-06-30T15:15:08.205Z,44.77
2023-06-30T15:17:34.730Z,44.80
2023-06-30T15:20:01.376Z,44.72
2023-06-30T15:22:30.401Z,44.73
2023-06-30T15:24:58.624Z,44.80
2023-06-30T15:27:25.725Z,44.42
2023-06-30T15:29:53.149Z,44.53
2023-06-30T15:32:20.122Z,44.53
2023-06-30T15:34:47.029Z,44.83
2023-06-30T15:37:13.546Z,44.86
2023-06-30T15:39:40.139Z,44.86
2023-06-30T15:42:06.702Z,44.88
2023-06-30T15:44:33.234Z,45.18
2023-06-30T15:47:01.438Z,45.48
2023-06-30T15:49:28.014Z,44.98
2023-06-30T15:51:54.539Z,45.74
2023-06-30T15:54:21.063Z,45.54
2023-06-30T15:56:47.623Z,45.18
2023-06-30T15:59:14.169Z,45.46
2023-06-30T16:01:40.640Z,45.92
2023-06-30T16:04:07.243Z,46.11
2023-06-30T16:06:33.772Z,46.19
2023-06-30T16:09:00.214Z,46.25
2023-06-30T16:11:26.640Z,46.31
2023-06-30T16:13:53.147Z,46.64
2023-06-30T16:16:19.713Z,46.92
2023-06-30T16:18:46.392Z,46.69
2023-06-30T16:21:12.858Z,47.21
2023-06-30T16:23:39.313Z,46.98
2023-06-30T16:26:05.726Z,47.16
2023-06-30T16:28:32.292Z,47.05
2023-06-30T16:30:58.739Z,46.82
2023-06-30T16:33:25.320Z,47.02
2023-06-30T16:35:52.056Z,47.49
2023-06-30T16:38:18.572Z,47.13
2023-06-30T16:40:45.096Z,47.29
2023-06-30T16:43:11.525Z,47.22
2023-06-30T16:45:38.031Z,47.65
2023-06-30T16:48:05.447Z,47.37
2023-06-30T16:50:32.309Z,47.35
2023-06-30T16:52:59.573Z,47.39
2023-06-30T16:55:26.117Z,47.74
2023-06-30T16:57:52.603Z,47.65
2023-06-30T17:00:19.329Z,47.98
2023-06-30T17:02:47.741Z,47.38
2023-06-30T17:05:14.720Z,47.71
2023-06-30T17:07:41.313Z,48.08
2023-06-30T17:10:08.134Z,47.96
2023-06-30T17:12:35.110Z,48.17
2023-06-30T17:15:01.685Z,48.22
2023-06-30T17:17:28.299Z,48.52
2023-06-30T17:19:54.831Z,48.60
2023-06-30T17:22:21.290Z,48.50
2023-06-30T17:24:47.791Z,48.00
2023-06-30T17:27:14.253Z,47.42
2023-06-30T17:29:40.890Z,46.63
2023-06-30T17:32:08.074Z,45.88
2023-06-30T17:34:34.574Z,44.87
2023-06-30T17:37:07.783Z,44.41
2023-06-30T17:39:34.960Z,44.30
2023-06-30T17:42:01.522Z,44.92
2023-06-30T17:44:29.102Z,45.30
2023-06-30T17:46:57.248Z,45.46
2023-06-30T17:49:29.833Z,45.56
2023-06-30T17:51:56.361Z,45.67
2023-06-30T17:54:25.697Z,46.35
2023-06-30T17:56:52.321Z,46.59
2023-06-30T17:59:18.817Z,46.52
2023-06-30T18:01:46.069Z,46.67
2023-06-30T18:04:14.320Z,46.44
2023-06-30T18:07:05.940Z,46.99
2023-06-30T18:09:34.084Z,46.44
2023-06-30T18:12:02.116Z,46.79
2023-06-30T18:14:29.862Z,46.81
2023-06-30T18:16:56.668Z,46.80
2023-06-30T18:19:23.801Z,47.09
2023-06-30T18:21:52.433Z,47.46
2023-06-30T18:24:19.648Z,47.63
2023-06-30T18:26:48.524Z,47.88
2023-06-30T18:29:24.627Z,47.76
2023-06-30T18:31:52.543Z,48.33
2023-06-30T18:34:22.509Z,48.69
2023-06-30T18:36:49.020Z,48.99
2023-06-30T18:39:17.630Z,49.54
2023-06-30T18:41:44.540Z,49.65
2023-06-30T18:44:11.044Z,50.39
2023-06-30T18:46:37.593Z,50.74
2023-06-30T18:49:07.607Z,50.99
2023-06-30T18:51:35.427Z,51.48
2023-06-30T18:54:01.919Z,51.98
2023-06-30T18:56:29.862Z,52.00
2023-06-30T18:59:00.703Z,52.47
2023-06-30T19:01:28.902Z,52.47
2023-06-30T19:03:56.231Z,52.58
2023-06-30T19:06:24.538Z,52.73
2023-06-30T19:08:51.467Z,52.54
2023-06-30T19:11:18.303Z,52.59
2023-06-30T19:13:45.115Z,52.77
2023-06-30T19:16:11.932Z,52.65
2023-06-30T19:18:39.987Z,52.38
2023-06-30T19:21:07.425Z,52.21
2023-06-30T19:23:34.857Z,52.08
2023-06-30T19:26:01.335Z,52.12
2023-06-30T19:28:27.921Z,52.44
2023-06-30T19:30:54.598Z,52.41
2023-06-30T19:33:28.918Z,52.28
2023-06-30T19:35:56.199Z,52.28
2023-06-30T19:38:22.726Z,52.30
2023-06-30T19:40:49.204Z,52.54
2023-06-30T19:43:15.903Z,52.60
2023-06-30T19:45:43.209Z,52.74
2023-06-30T19:48:09.999Z,52.93
2023-06-30T19:50:37.438Z,52.45
2023-06-30T19:53:04.077Z,51.95
2023-06-30T19:55:32.989Z,52.39
2023-06-30T19:57:59.479Z,52.67
2023-06-30T20:00:25.980Z,52.39
2023-06-30T20:02:55.178Z,52.84
2023-06-30T20:05:21.821Z,53.34
2023-06-30T20:07:48.407Z,53.47
2023-06-30T20:10:14.871Z,53.61
2023-06-30T20:12:41.446Z,53.88
2023-06-30T20:15:08.803Z,54.05
2023-06-30T20:17:35.752Z,54.18
2023-06-30T20:20:02.369Z,54.64
2023-06-30T20:22:28.857Z,54.49
2023-06-30T20:24:55.403Z,54.04
2023-06-30T20:27:21.896Z,54.26
2023-06-30T20:29:48.383Z,54.59
2023-06-30T20:32:15.043Z,54.11
2023-06-30T20:34:41.881Z,54.29
2023-06-30T20:37:10.657Z,54.35
2023-06-30T20:39:37.559Z,54.42
2023-06-30T20:42:04.440Z,54.40
2023-06-30T20:44:30.899Z,54.62
2023-06-30T20:46:57.464Z,54.72
2023-06-30T20:49:24.398Z,54.71
2023-06-30T20:51:53.792Z,54.90
2023-06-30T20:54:21.762Z,54.78
2023-06-30T20:56:48.427Z,54.55
2023-06-30T20:59:16.297Z,54.62
2023-06-30T21:01:42.942Z,54.69
2023-06-30T21:04:09.764Z,54.86
2023-06-30T21:06:36.445Z,54.71
2023-06-30T21:09:06.008Z,54.23
2023-06-30T21:11:33.467Z,54.02
2023-06-30T21:14:00.738Z,54.07
2023-06-30T21:16:27.470Z,54.11
2023-06-30T21:18:54.120Z,54.34
2023-06-30T21:21:20.598Z,54.48
2023-06-30T21:23:47.280Z,54.48
2023-06-30T21:26:13.843Z,54.53
2023-06-30T21:28:40.332Z,54.99
2023-06-30T21:31:06.853Z,55.05
2023-06-30T21:33:33.357Z,55.06
2023-06-30T21:36:00.180Z,55.72
2023-06-30T21:38:26.873Z,55.94
2023-06-30T21:40:53.409Z,56.22
2023-06-30T21:43:19.857Z,56.38
2023-06-30T21:45:46.415Z,56.42
2023-06-30T21:48:13.957Z,56.65
2023-06-30T21:50:40.801Z,56.43
2023-06-30T21:53:07.385Z,56.68
2023-06-30T21:55:35.132Z,56.29
2023-06-30T21:58:06.494Z,56.03
2023-06-30T22:00:38.095Z,55.62
2023-06-30T22:03:04.845Z,55.37
2023-06-30T22:05:31.436Z,55.53
2023-06-30T22:07:57.951Z,55.38
2023-06-30T22:10:24.460Z,55.75
2023-06-30T22:12:50.977Z,55.58
2023-06-30T22:15:17.624Z,55.69
2023-06-30T22:17:44.137Z,55.74
2023-06-30T22:20:10.862Z,55.45
2023-06-30T22:22:37.434Z,55.61
2023-06-30T22:25:04.278Z,55.58
2023-06-30T22:27:32.205Z,55.90
2023-06-30T22:29:58.712Z,55.95
2023-06-30T22:32:25.587Z,56.21
2023-06-30T22:34:52.053Z,56.40
2023-06-30T22:37:18.660Z,56.52
2023-06-30T22:39:45.144Z,56.51
2023-06-30T22:42:11.592Z,56.72
2023-06-30T22:44:38.135Z,56.98
2023-06-30T22:47:04.919Z,57.02
2023-06-30T22:49:31.455Z,57.14
2023-06-30T22:51:58.192Z,57.05
2023-06-30T22:54:26.123Z,57.17
2023-06-30T22:56:52.647Z,57.33
2023-06-30T22:59:19.080Z,57.42
2023-06-30T23:01:45.675Z,57.60
2023-06-30T23:04:12.311Z,58.02
2023-06-30T23:06:38.814Z,58.19
2023-06-30T23:09:05.575Z,58.39
2023-06-30T23:11:32.053Z,59.33
2023-06-30T23:13:58.673Z,60.12
2023-06-30T23:16:25.089Z,60.78
2023-06-30T23:18:51.692Z,61.17
2023-06-30T23:21:19.203Z,61.22
2023-06-30T23:23:46.483Z,61.61
2023-06-30T23:26:15.137Z,61.90
2023-06-30T23:28:44.451Z,62.11
2023-06-30T23:31:11.126Z,62.12
2023-06-30T23:33:37.979Z,61.93
2023-06-30T23:36:04.839Z,62.06
2023-06-30T23:38:31.351Z,62.07
2023-06-30T23:40:58.218Z,62.44
2023-06-30T23:43:24.709Z,62.23
2023-06-30T23:45:51.730Z,62.04
2023-06-30T23:48:18.247Z,62.12
2023-06-30T23:50:44.993Z,62.13
2023-06-30T23:53:11.683Z,62.55
2023-06-30T23:55:38.191Z,62.17
2023-06-30T23:58:04.667Z,62.14
